Time;durP1;ratioP1;P1;durP2;ratioP2;P2;SDS_P1;SDS_P2;PMS_P1;PMS_P2;Temp;Humidity;BMP_temperature;BMP_pressure;BME280_temperature;BME280_humidity;BME280_pressure;Samples;Min_cycle;Max_cycle;Signal;HPM_P1;HPM_P2
2023/08/26 00:03:29;;;;;;;21.33;3.97;;;;;;;18.98;50.80;100093.03;10454117;28;20282;-75
2023/08/26 00:08:29;;;;;;;9.80;4.18;;;;;;;19.11;51.54;100119.75;10453498;28;20045;-75
2023/08/26 00:13:30;;;;;;;19.98;4.22;;;;;;;19.04;52.28;100124.44;10454702;28;20053;-75
2023/08/26 00:18:31;;;;;;;11.32;3.72;;;;;;;18.89;52.53;100089.03;10454147;28;20408;-75
2023/08/26 00:23:32;;;;;;;12.82;3.70;;;;;;;19.13;52.49;100117.66;10454659;28;20068;-75
2023/08/26 00:28:32;;;;;;;14.43;4.25;;;;;;;18.78;52.85;100057.50;10454113;28;20037;-75
2023/08/26 00:33:33;;;;;;;18.33;4.00;;;;;;;18.97;53.18;100094.09;10453863;28;20051;-75
2023/08/26 00:38:34;;;;;;;15.93;4.22;;;;;;;19.06;53.30;100111.56;10454633;28;20033;-75
2023/08/26 00:43:37;;;;;;;10.68;4.25;;;;;;;19.12;54.01;100110.66;10454346;28;20489;-75
2023/08/26 00:48:38;;;;;;;14.83;4.20;;;;;;;18.85;54.26;100066.34;10453692;28;20155;-75
2023/08/26 00:53:39;;;;;;;47.97;5.07;;;;;;;19.11;54.25;100109.00;10453587;28;20295;-75
2023/08/26 00:58:40;;;;;;;9.90;4.25;;;;;;;18.81;54.72;100084.78;10453077;28;20500;-75
2023/08/26 01:03:41;;;;;;;20.42;4.18;;;;;;;19.07;55.20;100145.50;10453908;28;20457;-75
2023/08/26 01:08:41;;;;;;;20.88;4.13;;;;;;;19.04;54.75;100153.22;10453192;28;20044;-75
2023/08/26 01:13:48;;;;;;;17.67;4.72;;;;;;;19.05;54.90;100150.28;10452582;28;20049;-75
2023/08/26 01:18:49;;;;;;;79.50;6.15;;;;;;;18.94;54.89;100137.63;10453376;28;20040;-75
2023/08/26 01:23:52;;;;;;;34.00;4.60;;;;;;;18.93;54.67;100138.66;10459962;28;20045;-76
2023/08/26 01:28:53;;;;;;;13.88;4.28;;;;;;;19.08;54.44;100166.00;10460881;28;20044;-75
2023/08/26 01:34:20;;;;;;;27.98;4.65;;;;;;;19.07;56.68;100158.97;10460007;28;20143;-75
2023/08/26 01:39:21;;;;;;;13.55;3.67;;;;;;;19.06;55.52;100170.81;10459699;28;20044;-75
2023/08/26 01:44:22;;;;;;;11.48;4.35;;;;;;;18.83;55.15;100131.13;10459252;28;20459;-75
2023/08/26 01:49:23;;;;;;;46.42;6.13;;;;;;;18.97;55.56;100155.19;10459398;28;20043;-74
2023/08/26 01:54:24;;;;;;;208.73;14.32;;;;;;;18.34;56.07;100079.19;10459076;28;20095;-75
2023/08/26 01:59:25;;;;;;;59.92;6.75;;;;;;;18.73;56.71;100173.06;10459206;28;20037;-76
2023/08/26 02:04:26;;;;;;;59.28;6.88;;;;;;;18.62;57.19;100180.84;10459053;28;20158;-75
2023/08/26 02:09:26;;;;;;;41.38;5.97;;;;;;;18.38;57.73;100155.66;10458806;28;20373;-75
2023/08/26 02:14:27;;;;;;;21.77;4.43;;;;;;;18.41;57.57;100174.03;10458705;28;20045;-75
2023/08/26 02:19:28;;;;;;;27.10;5.50;;;;;;;17.92;58.32;100122.03;10458612;28;20037;-74
2023/08/26 02:24:29;;;;;;;24.33;5.53;;;;;;;18.13;59.45;100176.41;10458219;28;20416;-75
2023/08/26 02:29:30;;;;;;;89.05;9.70;;;;;;;18.04;60.49;100205.44;10439839;28;20090;-75
2023/08/26 02:34:31;;;;;;;139.75;11.05;;;;;;;17.88;60.98;100201.41;10457226;28;20036;-75
2023/08/26 02:39:32;;;;;;;107.30;9.02;;;;;;;17.07;60.87;100076.00;10457761;28;20041;-75
2023/08/26 02:44:33;;;;;;;49.40;6.88;;;;;;;17.77;61.21;100200.28;10458174;28;20032;-75
2023/08/26 02:49:34;;;;;;;105.15;10.82;;;;;;;17.38;61.17;100155.72;10457173;28;20037;-75
2023/08/26 02:54:34;;;;;;;187.02;14.75;;;;;;;17.70;61.68;100210.19;10456435;28;20041;-75
2023/08/26 02:59:35;;;;;;;194.32;15.85;;;;;;;17.50;61.97;100145.06;10456283;28;20044;-75
2023/08/26 03:04:36;;;;;;;133.98;13.57;;;;;;;18.19;61.89;100222.03;10456892;28;20037;-75
2023/08/26 03:09:37;;;;;;;49.47;6.53;;;;;;;18.36;61.46;100210.69;10455922;28;20057;-74
2023/08/26 03:14:37;;;;;;;134.43;12.90;;;;;;;18.53;60.70;100192.13;10455622;28;20096;-74
2023/08/26 03:19:39;;;;;;;81.13;10.10;;;;;;;19.33;59.63;100253.91;10455525;28;20405;-75
2023/08/26 03:24:39;;;;;;;73.18;8.48;;;;;;;20.04;57.50;100230.69;10438363;28;20037;-75
2023/08/26 03:29:40;;;;;;;194.35;17.23;;;;;;;20.82;56.93;100188.19;10455730;28;20037;-75
2023/08/26 03:34:41;;;;;;;38.95;6.07;;;;;;;22.04;54.04;100222.00;10454864;28;20037;-75
2023/08/26 03:39:42;;;;;;;26.52;6.53;;;;;;;23.04;50.81;100241.88;10455794;28;20072;-75
2023/08/26 03:44:43;;;;;;;24.95;8.02;;;;;;;23.41;49.26;100187.78;10455231;28;20400;-75
2023/08/26 03:49:43;;;;;;;20.67;7.50;;;;;;;24.45;47.25;100245.38;10454473;28;20040;-75
2023/08/26 03:54:44;;;;;;;20.25;6.07;;;;;;;24.70;46.07;100252.81;10454797;28;20405;-75
2023/08/26 03:59:45;;;;;;;21.92;5.55;;;;;;;24.98;44.63;100248.91;10453952;28;20555;-75
2023/08/26 04:04:45;;;;;;;23.00;4.13;;;;;;;25.05;44.08;100251.38;10455014;28;20048;-75
2023/08/26 04:09:46;;;;;;;15.80;3.90;;;;;;;25.12;43.16;100251.09;10436817;28;20059;-75
2023/08/26 04:14:47;;;;;;;42.10;4.93;;;;;;;25.30;43.52;100272.41;10453727;28;20519;-75
2023/08/26 04:19:49;;;;;;;14.13;3.85;;;;;;;25.36;42.71;100265.88;10453142;28;20104;-75
2023/08/26 04:24:50;;;;;;;13.85;3.95;;;;;;;25.62;41.77;100263.22;10446509;28;20079;-75
2023/08/26 04:29:51;;;;;;;10.95;3.45;;;;;;;26.09;40.49;100270.38;10430795;28;20041;-75
2023/08/26 04:34:52;;;;;;;11.40;3.58;;;;;;;25.47;40.80;100126.13;10433426;28;20506;-75
2023/08/26 04:39:52;;;;;;;11.43;3.50;;;;;;;26.72;40.18;100251.78;10430829;28;20489;-75
2023/08/26 04:44:53;;;;;;;6.93;3.38;;;;;;;26.53;39.13;100207.13;10433007;28;20040;-75
2023/08/26 04:49:54;;;;;;;16.73;3.80;;;;;;;26.60;38.38;100208.47;10437777;28;20037;-75
2023/08/26 04:54:55;;;;;;;15.20;3.60;;;;;;;26.72;38.40;100237.34;10417212;28;20029;-75
2023/08/26 04:59:55;;;;;;;8.18;2.97;;;;;;;26.07;38.84;100188.97;10451846;28;20127;-75
2023/08/26 05:04:57;;;;;;;17.65;3.92;;;;;;;26.42;39.50;100267.06;10460913;28;20123;-75
2023/08/26 05:09:57;;;;;;;10.20;3.50;;;;;;;25.88;39.61;100223.28;10460523;28;20057;-75
2023/08/26 05:14:58;;;;;;;16.50;3.40;;;;;;;26.14;40.06;100268.44;10461409;28;20049;-75
2023/08/26 05:19:59;;;;;;;9.70;3.10;;;;;;;26.28;39.77;100278.78;10460246;28;20032;-75
2023/08/26 05:24:59;;;;;;;14.60;3.25;;;;;;;26.63;39.98;100284.22;10460090;28;20088;-75
2023/08/26 05:30:00;;;;;;;18.55;3.15;;;;;;;26.67;39.77;100275.50;10459864;28;20052;-75
2023/08/26 05:35:01;;;;;;;7.47;2.55;;;;;;;26.73;39.55;100256.13;10460687;28;20496;-75
2023/08/26 05:40:03;;;;;;;5.93;2.38;;;;;;;26.94;39.55;100277.84;10459540;28;20076;-75
2023/08/26 05:45:07;;;;;;;6.00;2.25;;;;;;;26.94;38.88;100277.84;10459223;28;20147;-75
2023/08/26 05:50:09;;;;;;;8.02;1.88;;;;;;;27.22;38.74;100282.69;10441991;28;20064;-75
2023/08/26 05:55:10;;;;;;;9.95;2.13;;;;;;;27.38;38.74;100263.50;10459674;28;20041;-75
2023/08/26 06:00:11;;;;;;;5.50;1.60;;;;;;;27.57;37.99;100291.75;10441287;28;20109;-75
2023/08/26 06:05:12;;;;;;;8.05;1.95;;;;;;;27.61;37.96;100265.53;10455606;28;20051;-75
2023/08/26 06:10:13;;;;;;;5.75;1.73;;;;;;;27.81;37.90;100296.53;10458511;28;20061;-76
2023/08/26 06:15:14;;;;;;;4.38;1.63;;;;;;;27.74;37.24;100291.38;10458742;28;20040;-75
2023/08/26 06:20:15;;;;;;;27.27;2.42;;;;;;;27.87;36.84;100296.22;10458638;28;20068;-74
2023/08/26 06:25:16;;;;;;;10.98;1.70;;;;;;;28.08;37.40;100313.25;10455870;28;20041;-75
2023/08/26 06:30:17;;;;;;;7.03;1.73;;;;;;;28.18;37.07;100304.97;10457667;28;20135;-74
2023/08/26 06:35:18;;;;;;;8.68;1.40;;;;;;;27.70;36.31;100231.09;10458163;28;20477;-75
2023/08/26 06:40:18;;;;;;;11.82;1.85;;;;;;;27.84;36.18;100236.72;10438206;28;20119;-74
2023/08/26 06:45:19;;;;;;;19.20;2.80;;;;;;;28.43;35.72;100305.88;10452295;28;20049;-75
2023/08/26 06:50:20;;;;;;;6.78;1.80;;;;;;;28.39;35.85;100281.03;10457377;28;20056;-75
2023/08/26 06:55:21;;;;;;;9.85;1.80;;;;;;;28.55;35.53;100283.63;10456599;28;20094;-74
2023/08/26 07:00:22;;;;;;;7.60;1.63;;;;;;;28.47;35.58;100279.59;10457396;28;20504;-74
2023/08/26 07:05:22;;;;;;;10.80;2.28;;;;;;;28.71;35.48;100297.94;10456459;28;20044;-74
2023/08/26 07:10:23;;;;;;;14.45;2.00;;;;;;;27.91;35.58;100170.88;10455764;28;20086;-73
2023/08/26 07:15:24;;;;;;;6.82;1.80;;;;;;;28.78;35.09;100282.00;10455629;28;20131;-74
2023/08/26 07:20:25;;;;;;;8.18;2.05;;;;;;;28.87;34.93;100293.94;10454941;28;20075;-74
2023/08/26 07:25:26;;;;;;;7.70;2.22;;;;;;;28.79;35.00;100295.38;10455691;28;20502;-74
2023/08/26 07:30:27;;;;;;;10.90;2.08;;;;;;;28.94;35.01;100280.72;10455779;28;20595;-73
2023/08/26 07:35:28;;;;;;;7.32;1.70;;;;;;;28.96;34.86;100247.59;10455538;28;20166;-74
2023/08/26 07:40:29;;;;;;;15.77;2.50;;;;;;;29.03;34.91;100250.84;10454783;28;20401;-74
2023/08/26 07:45:29;;;;;;;9.25;2.00;;;;;;;28.94;34.02;100225.22;10435210;28;20045;-74
2023/08/26 07:50:30;;;;;;;4.18;2.00;;;;;;;28.95;34.08;100232.31;10454211;28;20191;-73
2023/08/26 07:55:32;;;;;;;12.45;2.35;;;;;;;29.12;34.09;100238.13;10437207;28;20044;-74
2023/08/26 08:00:32;;;;;;;15.45;2.25;;;;;;;29.34;34.22;100290.34;10435900;28;20045;-74
2023/08/26 08:05:33;;;;;;;8.60;2.30;;;;;;;29.48;34.57;100279.50;10452555;28;20040;-74
2023/08/26 08:15:57;;;;;;;12.95;2.10;;;;;;;29.72;33.67;100262.19;10433680;23;20070;-74
2023/08/26 08:20:58;;;;;;;6.38;2.08;;;;;;;29.95;33.52;100291.41;10227329;29;20141;-69
2023/08/26 08:25:59;;;;;;;5.65;2.03;;;;;;;29.79;33.40;100265.34;10237226;29;20042;-69
2023/08/26 08:30:59;;;;;;;7.30;2.53;;;;;;;30.03;32.96;100288.00;10222812;29;20044;-78
2023/08/26 08:36:00;;;;;;;4.05;1.90;;;;;;;29.44;33.16;100231.94;10236573;29;20074;-70
2023/08/26 08:41:01;;;;;;;11.13;2.40;;;;;;;30.03;32.90;100296.22;10220150;29;20054;-70
2023/08/26 08:46:02;;;;;;;4.43;1.80;;;;;;;30.32;32.10;100288.91;10251203;29;20067;-69
2023/08/26 08:51:04;;;;;;;9.70;1.83;;;;;;;30.10;31.63;100273.91;10246713;29;20534;-74
2023/08/26 08:56:06;;;;;;;5.00;1.70;;;;;;;30.34;31.62;100283.94;10213954;29;20479;-67
2023/08/26 09:01:07;;;;;;;6.80;1.92;;;;;;;30.43;31.35;100285.69;10258463;29;20071;-68
2023/08/26 09:06:08;;;;;;;7.18;1.60;;;;;;;30.48;31.16;100260.91;10233220;29;20039;-70
2023/08/26 09:11:09;;;;;;;7.70;2.30;;;;;;;30.48;31.61;100263.66;10222680;29;20050;-70
2023/08/26 09:16:10;;;;;;;19.42;2.17;;;;;;;30.56;31.44;100264.06;10258943;28;20114;-70
2023/08/26 09:21:11;;;;;;;7.20;1.70;;;;;;;30.36;30.41;100257.84;10219938;29;20047;-70
2023/08/26 09:26:12;;;;;;;7.00;2.00;;;;;;;30.56;30.78;100244.88;10218790;29;20039;-69
2023/08/26 09:31:13;;;;;;;7.65;1.95;;;;;;;30.72;30.65;100259.88;10217732;29;20497;-69
2023/08/26 09:36:14;;;;;;;8.45;2.53;;;;;;;30.68;29.89;100245.97;10217303;29;20039;-71
2023/08/26 09:41:23;;;;;;;11.55;2.05;;;;;;;30.80;30.06;100275.66;10216112;29;20050;-68
2023/08/26 09:46:24;;;;;;;20.58;2.22;;;;;;;29.93;30.22;100143.00;10217974;29;20075;-68
2023/08/26 09:51:29;;;;;;;6.70;1.80;;;;;;;30.47;29.60;100264.75;10216772;29;20078;-67
2023/08/26 09:56:30;;;;;;;9.10;3.42;;;;;;;30.43;29.53;100238.28;10216809;29;20048;-68
2023/08/26 10:01:33;;;;;;;32.08;3.53;;;;;;;30.75;30.18;100253.00;10216466;29;20043;-66
2023/08/26 10:06:36;;;;;;;;;;;;;;;31.18;30.03;100261.72;10216597;29;20039;-68
2023/08/26 10:16:48;;;;;;;23.60;2.13;;;;;;;30.92;28.53;100248.53;10580104;23;20069;-63
2023/08/26 10:21:50;;;;;;;5.20;1.35;;;;;;;30.94;28.81;100270.19;10296042;28;20090;-63
2023/08/26 10:26:52;;;;;;;8.50;1.92;;;;;;;30.74;28.93;100265.09;10294978;28;20466;-63
2023/08/26 10:31:52;;;;;;;10.55;1.77;;;;;;;30.27;29.53;100267.88;10294562;28;20396;-63
2023/08/26 10:36:57;;;;;;;15.57;1.77;;;;;;;29.99;29.58;100277.91;10277564;28;20043;-63
2023/08/26 10:42:17;;;;;;;14.68;1.58;;;;;;;30.32;29.26;100273.25;10295484;28;20047;-63
2023/08/26 10:47:51;;;;;;;6.60;2.35;;;;;;;30.71;28.77;100269.25;10294897;28;20043;-65
2023/08/26 10:52:56;;;;;;;58.05;3.33;;;;;;;30.52;28.10;100263.06;10294847;28;20050;-63
2023/08/26 10:58:16;;;;;;;4.85;1.45;;;;;;;30.39;28.28;100221.59;10293651;28;20046;-66
2023/08/26 11:03:24;;;;;;;13.50;1.77;;;;;;;30.40;28.72;100258.88;10294078;28;20050;-64
2023/08/26 11:08:25;;;;;;;10.38;1.30;;;;;;;29.74;28.96;100188.81;10292555;28;20105;-63
2023/08/26 11:13:26;;;;;;;11.88;1.30;;;;;;;30.29;28.93;100254.69;10293706;28;20054;-62
2023/08/26 11:18:27;;;;;;;4.57;1.50;;;;;;;30.52;28.40;100254.81;10292554;28;20117;-63
2023/08/26 11:23:28;;;;;;;19.23;4.10;;;;;;;30.61;28.25;100255.75;10292987;28;20047;-63
2023/08/26 11:28:31;;;;;;;18.33;2.05;;;;;;;30.70;28.17;100254.72;10290207;28;20042;-65
2023/08/26 11:33:31;;;;;;;31.40;2.33;;;;;;;30.66;28.23;100252.88;10271515;28;20043;-62
2023/08/26 11:38:34;;;;;;;6.45;1.42;;;;;;;30.40;27.55;100260.81;10271492;28;20043;-63
2023/08/26 11:43:36;;;;;;;7.45;1.55;;;;;;;30.50;28.12;100259.78;10271097;28;20046;-64
2023/08/26 11:48:37;;;;;;;6.23;1.47;;;;;;;30.38;28.10;100232.88;10270166;28;20035;-63
2023/08/26 11:53:38;;;;;;;6.30;1.30;;;;;;;30.36;28.14;100235.91;10269157;28;20039;-63
2023/08/26 11:58:39;;;;;;;8.73;1.60;;;;;;;30.03;28.14;100178.44;10274463;28;20130;-64
2023/08/26 12:03:43;;;;;;;11.85;1.85;;;;;;;30.59;27.81;100261.53;10268697;28;20034;-66
2023/08/26 12:08:51;;;;;;;10.38;1.40;;;;;;;30.56;27.49;100264.06;10281478;28;20446;-66
2023/08/26 12:13:52;;;;;;;7.50;1.50;;;;;;;30.57;27.76;100266.47;10270228;28;20521;-67
2023/08/26 12:18:54;;;;;;;23.08;2.00;;;;;;;30.31;27.33;100262.63;10269802;28;20051;-66
2023/08/26 12:23:54;;;;;;;3.20;1.30;;;;;;;30.22;27.73;100270.72;10271221;28;20039;-66
2023/08/26 12:28:55;;;;;;;8.93;1.75;;;;;;;30.37;28.03;100254.00;10267213;28;20043;-61
2023/08/26 12:40:38;;;;;;;8.10;1.75;;;;;;;29.68;27.16;100187.28;10233305;29;20062;-61
2023/08/26 12:45:39;;;;;;;3.65;1.17;;;;;;;29.72;27.34;100193.75;10238255;29;20047;-61
2023/08/26 12:50:40;;;;;;;7.68;1.52;;;;;;;30.12;27.34;100270.84;10248420;29;20547;-61
2023/08/26 12:55:41;;;;;;;8.65;1.48;;;;;;;30.09;27.40;100264.03;10250574;29;20050;-58
2023/08/26 13:00:41;;;;;;;7.22;1.55;;;;;;;30.07;27.51;100268.22;10251194;29;20043;-57
2023/08/26 13:05:43;;;;;;;11.18;1.52;;;;;;;30.09;27.28;100260.50;10242837;29;20039;-58
2023/08/26 13:10:44;;;;;;;14.50;1.85;;;;;;;29.95;27.03;100272.22;10231384;29;20488;-70
2023/08/26 13:15:45;;;;;;;14.57;2.00;;;;;;;29.89;27.77;100258.94;10240237;28;20047;-69
2023/08/26 13:20:47;;;;;;;13.75;1.65;;;;;;;29.55;27.11;100241.59;10243522;29;20406;-71
2023/08/26 13:25:48;;;;;;;6.10;1.27;;;;;;;29.66;27.36;100269.69;10236034;29;20125;-70
2023/08/26 13:30:49;;;;;;;4.85;1.23;;;;;;;29.67;27.32;100265.00;10241629;29;20147;-71
2023/08/26 13:35:49;;;;;;;4.63;1.42;;;;;;;29.50;27.45;100247.16;10235788;29;20044;-68
2023/08/26 13:40:50;;;;;;;4.07;1.17;;;;;;;29.51;27.50;100267.13;10244205;29;20436;-73
2023/08/26 13:45:51;;;;;;;16.20;1.92;;;;;;;29.37;27.42;100269.78;10236901;29;20118;-71
2023/08/26 13:50:52;;;;;;;12.27;1.92;;;;;;;28.86;27.83;100208.34;10250751;29;20050;-70
2023/08/26 13:55:57;;;;;;;13.98;1.50;;;;;;;28.56;27.68;100176.75;10241345;29;20040;-70
2023/08/26 14:00:58;;;;;;;13.02;1.50;;;;;;;28.80;27.60;100252.47;10248851;29;20499;-72
2023/08/26 14:05:59;;;;;;;18.15;1.88;;;;;;;28.83;27.91;100254.59;10245321;29;20035;-69
2023/08/26 14:11:01;;;;;;;10.40;1.40;;;;;;;28.88;28.22;100277.25;10245633;29;20499;-59
2023/08/26 14:16:02;;;;;;;24.20;2.17;;;;;;;28.77;27.85;100274.91;10237066;29;20127;-59
2023/08/26 14:21:03;;;;;;;11.95;1.50;;;;;;;28.20;28.23;100196.25;10244105;29;20578;-59
2023/08/26 14:26:03;;;;;;;7.18;1.45;;;;;;;28.48;28.11;100262.13;10233683;29;20099;-61
2023/08/26 14:31:04;;;;;;;14.77;1.67;;;;;;;28.28;28.33;100268.56;10254331;29;20399;-59
2023/08/26 14:36:05;;;;;;;13.15;1.88;;;;;;;27.68;28.63;100210.63;10254937;28;20503;-59
2023/08/26 14:41:06;;;;;;;19.58;2.05;;;;;;;27.86;28.62;100275.47;10255869;29;20039;-58
2023/08/26 14:46:07;;;;;;;26.42;2.47;;;;;;;27.61;29.20;100271.00;10254235;29;20039;-58
2023/08/26 14:51:08;;;;;;;17.95;2.10;;;;;;;27.51;29.42;100287.41;10254545;29;20106;-58
2023/08/26 14:56:10;;;;;;;11.77;1.83;;;;;;;27.36;29.54;100280.13;10254425;29;20039;-58
2023/08/26 15:01:11;;;;;;;12.77;1.80;;;;;;;27.24;29.90;100283.19;10253509;29;20043;-58
2023/08/26 15:06:12;;;;;;;23.98;3.00;;;;;;;27.08;30.49;100278.88;10253631;29;20046;-59
2023/08/26 15:11:13;;;;;;;44.03;2.88;;;;;;;26.52;31.42;100216.41;10253750;29;20047;-59
2023/08/26 15:16:15;;;;;;;17.75;2.25;;;;;;;26.39;30.78;100232.22;10253634;29;20118;-59
2023/08/26 15:21:18;;;;;;;12.00;1.50;;;;;;;26.28;31.12;100244.22;10253435;29;20407;-58
2023/08/26 15:26:19;;;;;;;51.38;7.45;;;;;;;26.26;31.58;100273.59;10235884;29;20089;-58
2023/08/26 15:31:19;;;;;;;19.63;2.67;;;;;;;26.14;31.62;100292.13;10252928;29;20047;-58
2023/08/26 15:36:20;;;;;;;37.28;4.47;;;;;;;25.87;32.29;100282.31;10252755;28;20062;-58
2023/08/26 15:41:21;;;;;;;36.10;4.15;;;;;;;25.81;32.39;100301.63;10251440;28;20491;-59
2023/08/26 15:46:22;;;;;;;19.10;3.13;;;;;;;25.24;33.10;100247.09;10252057;29;20047;-59
2023/08/26 15:51:22;;;;;;;39.53;3.70;;;;;;;25.38;33.42;100318.13;10252403;29;20058;-59
2023/08/26 15:56:23;;;;;;;20.30;2.95;;;;;;;25.22;33.79;100321.88;10251751;29;20118;-59
2023/08/26 16:01:28;;;;;;;14.48;2.25;;;;;;;24.66;34.45;100268.03;10251516;29;20070;-58
2023/08/26 16:06:29;;;;;;;125.65;10.05;;;;;;;24.85;35.64;100328.16;10252123;29;20376;-59
2023/08/26 16:11:30;;;;;;;28.33;4.05;;;;;;;24.69;35.64;100337.31;10251494;29;20126;-58
2023/08/26 16:16:31;;;;;;;32.42;5.63;;;;;;;24.41;36.04;100325.69;10249717;29;20138;-60
2023/08/26 16:21:32;;;;;;;13.35;3.75;;;;;;;24.40;36.44;100362.03;10200146;29;20058;-60
2023/08/26 16:26:33;;;;;;;29.88;5.70;;;;;;;24.09;37.44;100353.66;10172512;29;20466;-59
2023/08/26 16:31:33;;;;;;;65.95;14.32;;;;;;;24.02;37.48;100371.19;10172255;29;20044;-59
2023/08/26 16:36:34;;;;;;;106.55;36.67;;;;;;;23.99;37.42;100383.41;10172045;29;20095;-59
2023/08/26 16:41:35;;;;;;;44.17;13.32;;;;;;;23.91;36.89;100386.56;10169156;29;20048;-59
2023/08/26 16:46:36;;;;;;;57.08;21.38;;;;;;;23.67;37.10;100367.03;10168952;29;20040;-60
2023/08/26 16:51:37;;;;;;;117.35;45.38;;;;;;;23.21;37.22;100315.78;10179702;28;77490;-59
2023/08/26 16:56:38;;;;;;;68.07;29.27;;;;;;;23.57;37.17;100392.13;10258884;29;20134;-59
2023/08/26 17:01:38;;;;;;;77.75;30.00;;;;;;;23.55;36.46;100407.81;10258034;29;20049;-60
2023/08/26 17:06:39;;;;;;;58.35;13.05;;;;;;;23.07;36.75;100343.50;10254814;29;20039;-60
2023/08/26 17:11:40;;;;;;;31.77;6.55;;;;;;;23.44;36.52;100414.19;10257711;29;20078;-60
2023/08/26 17:16:41;;;;;;;20.35;9.82;;;;;;;23.33;36.79;100418.63;10257858;29;20043;-60
2023/08/26 17:21:41;;;;;;;15.32;6.78;;;;;;;23.09;36.53;100415.31;10255191;29;20451;-59
2023/08/26 17:26:42;;;;;;;14.52;5.63;;;;;;;22.03;36.17;100258.25;10254701;29;20098;-60
2023/08/26 17:31:43;;;;;;;13.63;6.25;;;;;;;23.01;36.94;100432.03;10255731;29;20462;-60
2023/08/26 17:36:44;;;;;;;16.25;4.03;;;;;;;22.94;36.34;100442.16;10254644;29;20106;-60
2023/08/26 17:41:45;;;;;;;11.82;3.50;;;;;;;22.83;35.83;100443.09;10251868;29;20075;-60
2023/08/26 17:46:46;;;;;;;11.82;3.90;;;;;;;22.77;35.77;100445.72;10253972;29;20075;-60
2023/08/26 17:51:46;;;;;;;12.85;2.38;;;;;;;22.51;35.15;100419.28;10252389;29;20047;-60
2023/08/26 17:56:47;;;;;;;13.50;5.05;;;;;;;22.61;34.57;100441.09;10254508;29;20503;-59
2023/08/26 18:01:48;;;;;;;23.30;5.35;;;;;;;22.63;34.38;100454.41;10253750;28;20435;-60
2023/08/26 18:06:49;;;;;;;16.13;4.05;;;;;;;22.55;34.71;100458.31;10256759;29;20054;-59
2023/08/26 18:11:49;;;;;;;23.63;3.90;;;;;;;22.48;34.73;100446.84;10253945;29;20057;-60
2023/08/26 18:16:50;;;;;;;23.08;3.13;;;;;;;22.19;36.86;100425.22;10256532;29;20045;-59
2023/08/26 18:21:51;;;;;;;40.28;4.72;;;;;;;22.01;37.74;100447.00;10254919;29;20430;-59
2023/08/26 18:26:51;;;;;;;15.05;4.15;;;;;;;21.23;38.51;100381.59;10238629;29;20039;-59
2023/08/26 18:31:52;;;;;;;19.48;4.40;;;;;;;21.31;39.05;100459.59;10255363;28;20094;-60
2023/08/26 18:36:53;;;;;;;18.85;4.55;;;;;;;21.00;39.98;100457.25;10254180;29;20057;-59
2023/08/26 18:41:54;;;;;;;15.55;3.92;;;;;;;20.38;40.31;100409.84;10254954;29;20515;-60
2023/08/26 18:46:54;;;;;;;37.38;4.55;;;;;;;19.75;40.41;100340.22;10254213;29;20035;-60
2023/08/26 18:51:56;;;;;;;21.15;3.53;;;;;;;20.51;40.54;100485.19;10254925;29;20058;-60
2023/08/26 18:56:58;;;;;;;17.10;3.38;;;;;;;20.49;40.50;100475.66;10254757;29;20047;-60
2023/08/26 19:01:58;;;;;;;29.67;4.32;;;;;;;20.21;41.69;100446.59;10254306;29;20043;-60
2023/08/26 19:06:59;;;;;;;12.23;3.05;;;;;;;20.18;42.87;100471.34;10253537;29;20039;-60
2023/08/26 19:12:02;;;;;;;12.57;3.47;;;;;;;19.89;43.96;100440.59;10253831;28;20058;-60
2023/08/26 19:17:03;;;;;;;10.45;3.20;;;;;;;19.83;45.35;100458.50;10252199;29;20563;-60
2023/08/26 19:22:03;;;;;;;16.33;3.20;;;;;;;19.53;46.45;100448.47;10252089;29;20080;-60
2023/08/26 19:27:05;;;;;;;11.45;2.92;;;;;;;19.05;46.76;100397.97;10251541;29;20137;-60
2023/08/26 19:32:08;;;;;;;24.23;3.72;;;;;;;18.86;46.95;100378.28;10251078;28;20051;-60
2023/08/26 19:37:09;;;;;;;24.10;4.20;;;;;;;19.24;48.23;100458.09;10251979;29;20062;-60
2023/08/26 19:42:10;;;;;;;15.63;3.53;;;;;;;19.03;48.76;100485.44;10252107;29;20522;-60
2023/08/26 19:47:11;;;;;;;27.30;3.55;;;;;;;18.75;49.74;100478.59;10252750;29;20038;-60
2023/08/26 19:52:12;;;;;;;14.85;3.00;;;;;;;18.47;49.92;100458.25;10252383;29;20054;-60
2023/08/26 19:57:20;;;;;;;7.43;2.60;;;;;;;18.69;51.15;100477.56;10251113;29;20049;-61
2023/08/26 20:02:21;;;;;;;23.95;3.15;;;;;;;18.61;50.10;100464.38;10252453;29;20043;-61
2023/08/26 20:07:22;;;;;;;12.43;2.72;;;;;;;18.62;50.65;100449.88;10235452;29;20411;-60
2023/08/26 20:12:25;;;;;;;6.25;2.35;;;;;;;18.58;51.16;100450.56;10251400;29;20053;-59
2023/08/26 20:17:26;;;;;;;42.10;3.83;;;;;;;17.95;51.66;100393.03;10233394;29;20122;-60
2023/08/26 20:22:27;;;;;;;27.70;3.45;;;;;;;18.15;52.52;100460.09;10251202;29;20163;-59
2023/08/26 20:27:28;;;;;;;16.65;2.90;;;;;;;17.96;51.92;100445.72;10250619;29;20134;-59
2023/08/26 20:32:29;;;;;;;19.67;3.28;;;;;;;17.63;51.89;100381.34;10251169;28;20047;-59
2023/08/26 20:37:29;;;;;;;18.33;3.33;;;;;;;18.05;52.38;100456.25;10227871;29;20066;-58
2023/08/26 20:42:30;;;;;;;12.30;3.78;;;;;;;18.06;53.00;100465.94;10251592;29;20400;-59
2023/08/26 20:47:31;;;;;;;12.73;3.70;;;;;;;18.01;52.99;100462.03;10251301;29;20046;-59
2023/08/26 20:52:32;;;;;;;17.42;3.78;;;;;;;17.64;53.39;100458.22;10251520;29;20039;-59
2023/08/26 20:57:32;;;;;;;12.00;3.08;;;;;;;17.52;53.88;100481.41;10250799;29;20418;-59
2023/08/26 21:02:33;;;;;;;11.23;3.35;;;;;;;17.58;53.67;100483.25;10251585;29;20039;-59
2023/08/26 21:07:34;;;;;;;9.77;3.05;;;;;;;17.47;53.37;100448.97;10250378;29;20047;-59
2023/08/26 21:12:34;;;;;;;11.40;3.30;;;;;;;17.34;54.22;100447.97;10251268;29;20081;-59
2023/08/26 21:17:35;;;;;;;13.77;3.70;;;;;;;17.23;54.81;100443.25;10250104;29;20043;-59
2023/08/26 21:22:39;;;;;;;17.80;4.05;;;;;;;17.11;55.26;100461.00;10250837;29;20403;-59
2023/08/26 21:27:40;;;;;;;18.50;4.47;;;;;;;16.72;54.61;100390.22;10250571;29;20039;-60
2023/08/26 21:32:43;;;;;;;8.25;3.75;;;;;;;17.18;54.43;100440.34;10249848;29;20430;-60
2023/08/26 21:37:44;;;;;;;12.75;3.88;;;;;;;17.10;55.24;100437.88;10253645;28;20059;-59
2023/08/26 21:42:45;;;;;;;14.93;4.18;;;;;;;17.00;55.68;100438.31;10256811;29;20183;-59
2023/08/26 21:47:46;;;;;;;20.92;4.15;;;;;;;17.04;55.56;100430.66;10256665;29;20043;-59
2023/08/26 21:52:46;;;;;;;12.70;3.92;;;;;;;16.59;55.97;100358.84;10257173;29;20051;-59
2023/08/26 21:58:07;;;;;;;10.40;4.15;;;;;;;16.93;57.97;100433.97;10257208;29;20126;-59
2023/08/26 22:03:07;;;;;;;12.07;4.90;;;;;;;16.37;56.84;100355.56;10257166;29;20054;-59
2023/08/26 22:08:10;;;;;;;12.52;4.35;;;;;;;16.63;57.31;100410.22;10255872;29;20507;-59
2023/08/26 22:13:10;;;;;;;11.73;3.92;;;;;;;16.53;57.86;100431.25;10255698;29;20189;-59
2023/08/26 22:18:11;;;;;;;10.73;3.95;;;;;;;15.98;58.25;100346.44;10256205;29;20130;-59
2023/08/26 22:23:12;;;;;;;37.33;4.47;;;;;;;16.28;59.07;100409.59;10255744;29;20147;-60
2023/08/26 22:28:13;;;;;;;10.00;3.90;;;;;;;16.23;58.73;100417.41;10255575;29;20447;-59
2023/08/26 22:33:15;;;;;;;16.90;3.92;;;;;;;16.12;59.22;100411.63;10254826;29;20507;-59
2023/08/26 22:38:19;;;;;;;10.85;3.72;;;;;;;15.93;59.51;100407.84;10255444;29;20055;-60
2023/08/26 22:43:20;;;;;;;19.70;3.83;;;;;;;15.87;59.60;100400.59;10255856;29;20039;-59
2023/08/26 22:48:21;;;;;;;11.57;3.42;;;;;;;15.88;59.41;100410.28;10254251;28;20039;-59
2023/08/26 22:53:22;;;;;;;13.43;4.00;;;;;;;15.77;60.00;100410.88;10254033;29;20075;-59
2023/08/26 22:58:23;;;;;;;24.90;3.90;;;;;;;15.71;59.92;100404.47;10254476;29;20126;-59
2023/08/26 23:03:24;;;;;;;22.33;3.90;;;;;;;15.57;59.83;100407.25;10254457;29;20054;-59
2023/08/26 23:08:24;;;;;;;31.73;4.28;;;;;;;15.55;60.13;100410.13;10254824;29;20035;-59
2023/08/26 23:13:25;;;;;;;14.65;3.13;;;;;;;15.50;60.02;100408.06;10253466;29;20047;-59